Time;durP1;ratioP1;P1;durP2;ratioP2;P2;SDS_P1;SDS_P2;PMS_P1;PMS_P2;Temp;Humidity;BMP_temperature;BMP_pressure;BME280_temperature;BME280_humidity;BME280_pressure;Samples;Min_cycle;Max_cycle;Signal;HPM_P1;HPM_P2
2021/06/06 00:00:26;;;;;;;23.73;14.93;;;15.30;99.90;;;;;;5072183;28;19913;-65
2021/06/06 00:02:55;;;;;;;24.60;15.32;;;15.30;99.90;;;;;;5073205;28;20029;-65
2021/06/06 00:05:22;;;;;;;20.98;14.13;;;15.30;99.90;;;;;;5071859;28;20037;-65
2021/06/06 00:07:48;;;;;;;18.58;12.65;;;15.30;99.90;;;;;;5070902;28;20016;-65
2021/06/06 00:10:15;;;;;;;21.58;14.05;;;15.30;99.90;;;;;;5071458;28;20450;-65
2021/06/06 00:12:40;;;;;;;21.55;14.35;;;15.30;99.90;;;;;;5054398;28;20465;-65
2021/06/06 00:15:10;;;;;;;20.42;12.88;;;15.30;99.90;;;;;;5070758;28;20036;-68
2021/06/06 00:17:35;;;;;;;17.97;12.53;;;15.30;99.90;;;;;;5071768;28;20029;-65
2021/06/06 00:20:04;;;;;;;17.83;12.80;;;15.30;99.90;;;;;;5071816;28;20078;-65
2021/06/06 00:22:30;;;;;;;19.13;12.02;;;15.30;99.90;;;;;;5068605;28;20037;-65
2021/06/06 00:24:56;;;;;;;18.85;13.52;;;15.30;99.90;;;;;;5071508;28;20089;-65
2021/06/06 00:27:23;;;;;;;16.73;12.00;;;15.30;99.90;;;;;;5071141;28;20032;-65
2021/06/06 00:29:49;;;;;;;17.95;11.75;;;15.30;99.90;;;;;;5071771;28;20113;-65
2021/06/06 00:32:14;;;;;;;17.88;12.05;;;15.30;99.90;;;;;;5070966;28;20094;-65
2021/06/06 00:34:42;;;;;;;17.38;11.48;;;15.30;99.90;;;;;;5071728;28;20584;-65
2021/06/06 00:37:08;;;;;;;15.35;12.43;;;15.30;99.90;;;;;;5070820;28;20555;-65
2021/06/06 00:39:34;;;;;;;16.50;11.48;;;15.30;99.90;;;;;;5071162;28;20032;-65
2021/06/06 00:42:00;;;;;;;16.52;10.93;;;15.30;99.90;;;;;;5071409;28;20024;-66
2021/06/06 00:44:27;;;;;;;16.70;10.88;;;15.30;99.90;;;;;;5070483;28;20036;-66
2021/06/06 00:46:53;;;;;;;18.58;11.75;;;15.30;99.90;;;;;;5071522;28;20036;-66
2021/06/06 00:49:20;;;;;;;19.67;11.73;;;15.30;99.90;;;;;;5070428;28;20036;-66
2021/06/06 00:51:53;;;;;;;15.90;10.07;;;15.30;99.90;;;;;;5071339;28;20110;-65
2021/06/06 00:54:24;;;;;;;13.35;9.98;;;15.30;99.90;;;;;;5070453;28;20105;-65
2021/06/06 00:56:54;;;;;;;15.07;10.32;;;15.30;99.90;;;;;;5071533;28;20061;-66
2021/06/06 00:59:22;;;;;;;12.95;9.57;;;15.30;99.90;;;;;;5070708;28;20078;-66
2021/06/06 01:01:48;;;;;;;14.15;10.43;;;15.20;99.90;;;;;;5067321;28;20390;-66
2021/06/06 01:04:14;;;;;;;12.82;9.43;;;15.20;99.90;;;;;;5070880;28;20066;-66
2021/06/06 01:06:44;;;;;;;14.40;9.77;;;15.20;99.90;;;;;;5070624;28;20028;-66
2021/06/06 01:09:12;;;;;;;15.25;10.10;;;15.20;99.90;;;;;;5063602;28;20024;-66
2021/06/06 01:12:08;;;;;;;14.68;9.25;;;15.20;99.90;;;;;;5071495;28;20086;-66
2021/06/06 01:14:48;;;;;;;12.68;9.13;;;15.20;99.90;;;;;;5035454;28;20401;-66
2021/06/06 01:17:31;;;;;;;13.52;8.95;;;15.20;99.90;;;;;;5070031;28;20046;-66
2021/06/06 01:20:20;;;;;;;13.85;9.30;;;15.20;99.90;;;;;;5071267;28;20039;-65
2021/06/06 01:23:05;;;;;;;12.68;9.18;;;15.20;99.90;;;;;;5009912;28;20049;-66
2021/06/06 01:25:44;;;;;;;11.65;8.60;;;15.20;99.90;;;;;;5070956;28;20032;-66
2021/06/06 01:28:19;;;;;;;10.90;8.57;;;15.20;99.90;;;;;;5070401;28;20107;-66
2021/06/06 01:30:49;;;;;;;11.10;7.90;;;15.20;99.90;;;;;;5071274;28;20047;-66
2021/06/06 01:33:21;;;;;;;13.23;9.80;;;15.20;99.90;;;;;;5070074;28;20050;-66
2021/06/06 01:36:03;;;;;;;8.80;7.53;;;15.20;99.90;;;;;;5071125;28;20036;-66
2021/06/06 01:38:36;;;;;;;9.60;7.78;;;15.20;99.90;;;;;;5070764;28;20035;-66
2021/06/06 01:41:08;;;;;;;9.48;7.57;;;15.10;99.90;;;;;;5063538;28;20032;-66
2021/06/06 01:43:39;;;;;;;12.43;9.00;;;15.10;99.90;;;;;;5071139;28;20074;-66
2021/06/06 01:46:09;;;;;;;12.00;8.43;;;15.10;99.90;;;;;;5070180;28;20612;-67
2021/06/06 01:48:36;;;;;;;;;;;15.20;99.90;;;;;;5071346;28;20085;-66
2021/06/06 01:51:12;;;;;;;13.80;8.82;;;15.10;99.90;;;;;;5072884;28;19994;-66
2021/06/06 01:53:43;;;;;;;9.82;7.53;;;15.10;99.90;;;;;;5075074;28;20066;-66
2021/06/06 01:56:10;;;;;;;11.48;7.68;;;15.20;99.90;;;;;;5073969;28;20032;-66
2021/06/06 01:58:37;;;;;;;9.40;7.97;;;15.10;99.90;;;;;;5074562;28;20107;-66
2021/06/06 02:01:19;;;;;;;8.20;7.38;;;15.10;99.90;;;;;;5074483;28;20028;-66
2021/06/06 02:03:49;;;;;;;11.50;7.85;;;15.10;99.90;;;;;;5074389;28;20033;-66
2021/06/06 02:06:20;;;;;;;9.80;8.05;;;15.10;99.90;;;;;;5055830;28;20374;-66
2021/06/06 02:08:47;;;;;;;9.75;7.18;;;15.10;99.90;;;;;;5066694;28;20496;-66
2021/06/06 02:11:19;;;;;;;10.80;7.88;;;15.10;99.90;;;;;;5073476;28;20024;-66
2021/06/06 02:14:01;;;;;;;11.07;7.93;;;15.10;99.90;;;;;;5074603;28;20029;-66
2021/06/06 02:16:33;;;;;;;9.57;7.57;;;15.10;99.90;;;;;;5067485;28;20024;-65
2021/06/06 02:18:59;;;;;;;8.45;6.85;;;15.10;99.90;;;;;;5056387;28;20025;-65
2021/06/06 02:21:26;;;;;;;13.38;7.68;;;15.10;99.90;;;;;;5073806;28;20577;-65
2021/06/06 02:23:51;;;;;;;8.07;6.80;;;15.10;99.90;;;;;;5074169;28;20564;-65
2021/06/06 02:26:32;;;;;;;8.85;7.40;;;15.10;99.90;;;;;;5073674;28;20104;-65
2021/06/06 02:29:17;;;;;;;9.25;6.72;;;15.10;99.90;;;;;;5066882;28;20024;-66
2021/06/06 02:32:09;;;;;;;8.20;6.40;;;15.10;99.90;;;;;;5073768;28;20032;-65
2021/06/06 02:35:03;;;;;;;10.77;7.13;;;15.10;99.90;;;;;;5074014;28;20032;-65
2021/06/06 02:38:08;;;;;;;8.77;6.82;;;15.10;99.90;;;;;;5048324;28;20354;-65
2021/06/06 02:40:51;;;;;;;7.53;6.32;;;15.00;99.90;;;;;;5074160;28;20032;-65
2021/06/06 02:43:31;;;;;;;10.32;7.15;;;15.00;99.90;;;;;;5073132;28;20163;-65
2021/06/06 02:45:59;;;;;;;;;;;15.00;99.90;;;;;;5074180;28;20434;-65
2021/06/06 02:48:28;;;;;;;9.63;6.50;;;15.00;99.90;;;;;;5073236;28;20353;-65
2021/06/06 02:50:59;;;;;;;8.30;6.57;;;15.10;99.90;;;;;;5073506;28;20055;-66
2021/06/06 02:53:29;;;;;;;9.50;7.00;;;15.10;99.90;;;;;;5073034;28;20032;-66
2021/06/06 02:56:01;;;;;;;9.27;7.10;;;15.10;99.90;;;;;;5073834;28;20059;-65
2021/06/06 02:58:55;;;;;;;8.82;6.93;;;15.00;99.90;;;;;;5072824;28;20473;-65
2021/06/06 03:01:30;;;;;;;11.07;6.30;;;15.00;99.90;;;;;;5066065;28;20266;-65
2021/06/06 03:03:56;;;;;;;10.40;7.82;;;15.00;99.90;;;;;;5073193;28;20438;-65
2021/06/06 03:06:29;;;;;;;6.97;6.28;;;15.00;99.90;;;;;;5072557;28;20024;-65
2021/06/06 03:08:55;;;;;;;8.27;6.13;;;15.10;99.90;;;;;;5073158;28;20029;-65
2021/06/06 03:11:21;;;;;;;6.95;6.05;;;15.10;99.90;;;;;;5070462;28;20032;-65
2021/06/06 03:13:53;;;;;;;12.10;7.40;;;15.10;99.90;;;;;;5055437;28;20025;-65
2021/06/06 03:16:20;;;;;;;7.97;5.95;;;15.10;99.90;;;;;;5072733;28;20477;-65
2021/06/06 03:18:51;;;;;;;8.57;6.80;;;15.10;99.90;;;;;;5073014;28;20047;-65
2021/06/06 03:21:31;;;;;;;11.10;6.47;;;15.10;99.90;;;;;;5072637;28;20107;-65
2021/06/06 03:24:27;;;;;;;8.20;5.93;;;15.10;99.90;;;;;;5073370;28;20028;-65
2021/06/06 03:26:54;;;;;;;10.43;6.78;;;15.10;99.90;;;;;;5065883;28;20095;-65
2021/06/06 03:29:25;;;;;;;10.35;6.78;;;15.00;99.90;;;;;;5071943;28;20488;-65
2021/06/06 03:32:05;;;;;;;13.00;8.05;;;15.00;99.90;;;;;;5073124;28;20028;-65
2021/06/06 03:34:31;;;;;;;14.23;7.68;;;15.00;99.90;;;;;;5073022;28;20170;-65
2021/06/06 03:36:57;;;;;;;12.82;7.80;;;15.10;99.90;;;;;;5072052;28;20029;-65
2021/06/06 03:39:28;;;;;;;12.35;7.10;;;15.10;99.90;;;;;;5065435;28;20021;-65
2021/06/06 03:41:56;;;;;;;11.88;7.22;;;15.10;99.90;;;;;;5073015;28;20074;-65
2021/06/06 03:44:23;;;;;;;13.85;7.80;;;15.10;99.90;;;;;;5071938;28;20036;-65
2021/06/06 03:46:49;;;;;;;13.25;7.00;;;15.00;99.90;;;;;;5073228;28;20461;-65
2021/06/06 03:49:16;;;;;;;11.85;7.25;;;15.00;99.90;;;;;;5071717;28;20033;-65
2021/06/06 03:51:42;;;;;;;12.55;6.97;;;15.00;99.90;;;;;;5074603;28;20059;-65
2021/06/06 03:54:10;;;;;;;11.00;7.15;;;14.90;99.90;;;;;;5063238;28;20378;-66
2021/06/06 03:56:41;;;;;;;16.52;7.93;;;14.90;99.90;;;;;;5072876;28;20025;-65
2021/06/06 03:59:07;;;;;;;;;;;14.90;99.90;;;;;;5072099;28;20037;-65
2021/06/06 04:01:33;;;;;;;13.68;8.02;;;14.90;99.90;;;;;;5072402;28;19908;-65
2021/06/06 04:03:58;;;;;;;14.82;7.28;;;15.00;99.90;;;;;;5072361;28;20036;-65
2021/06/06 04:06:25;;;;;;;14.02;6.80;;;14.90;99.90;;;;;;5071237;28;20031;-65
2021/06/06 04:08:51;;;;;;;12.18;6.95;;;14.90;99.90;;;;;;5072288;28;20028;-65
2021/06/06 04:11:18;;;;;;;11.30;6.78;;;14.90;99.90;;;;;;5067430;28;20032;-65
2021/06/06 04:13:44;;;;;;;16.27;7.10;;;14.90;99.90;;;;;;5071479;28;20051;-65
2021/06/06 04:16:10;;;;;;;12.07;6.70;;;14.90;99.90;;;;;;5071138;28;20687;-65
2021/06/06 04:18:37;;;;;;;12.10;6.25;;;14.90;99.90;;;;;;5072165;28;20031;-66
2021/06/06 04:21:11;;;;;;;11.60;6.85;;;14.90;99.90;;;;;;5072044;28;20527;-66
2021/06/06 04:23:37;;;;;;;11.20;6.38;;;14.90;99.90;;;;;;5071651;28;20493;-65
2021/06/06 04:26:04;;;;;;;9.77;6.60;;;15.00;99.90;;;;;;5071668;28;20043;-65
2021/06/06 04:28:29;;;;;;;11.60;5.85;;;15.10;99.90;;;;;;5071565;28;20115;-65
2021/06/06 04:30:55;;;;;;;10.38;6.40;;;15.00;99.90;;;;;;5071076;28;20103;-66
2021/06/06 04:33:22;;;;;;;8.40;5.57;;;15.00;99.90;;;;;;5070726;28;20064;-65
2021/06/06 04:35:48;;;;;;;8.15;5.55;;;15.00;99.90;;;;;;5071789;28;20033;-65
2021/06/06 04:38:18;;;;;;;14.32;5.28;;;15.00;99.90;;;;;;5069115;28;20028;-65
2021/06/06 04:40:44;;;;;;;11.27;5.10;;;14.90;99.90;;;;;;5063347;28;20040;-65
2021/06/06 04:43:09;;;;;;;7.95;5.13;;;14.90;99.90;;;;;;5070930;28;20041;-65
2021/06/06 04:45:35;;;;;;;11.80;5.20;;;14.90;99.90;;;;;;5071536;28;20033;-65
2021/06/06 04:48:21;;;;;;;9.63;5.57;;;14.90;99.90;;;;;;5071645;28;20081;-65
2021/06/06 04:50:48;;;;;;;13.55;5.90;;;14.90;99.90;;;;;;5071176;28;20041;-64
2021/06/06 04:53:14;;;;;;;9.50;5.80;;;14.90;99.90;;;;;;5070579;28;20036;-65
2021/06/06 04:55:41;;;;;;;12.23;6.80;;;14.90;99.90;;;;;;5053486;28;20040;-65
2021/06/06 04:58:12;;;;;;;12.75;6.40;;;14.80;99.90;;;;;;5070673;28;20021;-66
2021/06/06 05:00:41;;;;;;;11.95;7.00;;;14.70;99.90;;;;;;5071581;28;20036;-66
2021/06/06 05:03:07;;;;;;;13.23;7.90;;;14.70;99.90;;;;;;5070533;28;20111;-66
2021/06/06 05:05:33;;;;;;;16.25;8.13;;;14.60;99.90;;;;;;5071141;28;20036;-65
2021/06/06 05:08:00;;;;;;;14.05;7.70;;;14.50;99.90;;;;;;5071154;28;20025;-65
2021/06/06 05:10:29;;;;;;;17.25;7.95;;;14.50;99.90;;;;;;5070226;28;20143;-65
2021/06/06 05:12:54;;;;;;;14.93;8.00;;;14.50;99.90;;;;;;5070867;28;20031;-65
2021/06/06 05:15:21;;;;;;;16.73;7.93;;;14.50;99.90;;;;;;5070356;28;20396;-65
2021/06/06 05:17:47;;;;;;;15.10;7.80;;;14.40;99.90;;;;;;5071210;28;20025;-65
2021/06/06 05:20:15;;;;;;;14.35;8.77;;;14.40;99.90;;;;;;5061235;28;20051;-65
2021/06/06 05:22:40;;;;;;;15.95;8.27;;;14.40;99.90;;;;;;5066024;28;20547;-65
2021/06/06 05:25:07;;;;;;;16.58;8.02;;;14.40;99.90;;;;;;5069169;28;20032;-65
2021/06/06 05:27:34;;;;;;;14.70;8.93;;;14.40;99.90;;;;;;5070891;28;20055;-65
2021/06/06 05:30:00;;;;;;;16.92;9.23;;;14.40;99.90;;;;;;5064936;28;20040;-65
2021/06/06 05:32:26;;;;;;;15.85;8.63;;;14.40;99.90;;;;;;5070373;28;20099;-65
2021/06/06 05:34:52;;;;;;;14.77;7.88;;;14.40;99.90;;;;;;5070840;28;20461;-65
2021/06/06 05:37:17;;;;;;;18.33;10.35;;;14.40;99.90;;;;;;5070122;28;20020;-65
2021/06/06 05:39:43;;;;;;;19.65;10.13;;;14.30;99.90;;;;;;5069018;28;20484;-65
2021/06/06 05:42:10;;;;;;;18.77;9.88;;;14.40;99.90;;;;;;5069414;28;20032;-65
2021/06/06 05:44:35;;;;;;;14.43;9.43;;;14.40;99.90;;;;;;5070807;28;20040;-65
2021/06/06 05:47:04;;;;;;;17.95;10.18;;;14.40;99.90;;;;;;5070722;28;20392;-65
2021/06/06 05:49:29;;;;;;;17.90;10.27;;;14.50;99.90;;;;;;5070067;28;20028;-65
2021/06/06 05:51:55;;;;;;;18.30;11.15;;;14.60;99.90;;;;;;5070677;28;20127;-65
2021/06/06 05:54:21;;;;;;;18.20;10.80;;;14.60;99.90;;;;;;5070177;28;20048;-65
2021/06/06 05:56:47;;;;;;;19.30;11.90;;;14.50;99.90;;;;;;5070940;28;20172;-65
2021/06/06 05:59:13;;;;;;;20.38;12.25;;;14.50;99.90;;;;;;5051712;28;20046;-65
2021/06/06 06:01:39;;;;;;;21.35;11.05;;;14.50;99.90;;;;;;5070629;28;20092;-65
2021/06/06 06:04:05;;;;;;;17.42;11.00;;;14.50;99.90;;;;;;5070075;28;20151;-65
2021/06/06 06:06:30;;;;;;;19.20;11.90;;;14.50;99.90;;;;;;5070386;28;20054;-65
2021/06/06 06:08:57;;;;;;;17.55;11.50;;;14.50;99.90;;;;;;5060632;28;20028;-65
2021/06/06 06:11:23;;;;;;;17.70;11.65;;;14.50;99.90;;;;;;5069569;28;20029;-65
2021/06/06 06:13:50;;;;;;;18.30;11.20;;;14.50;99.90;;;;;;5070397;28;20116;-65
2021/06/06 06:16:19;;;;;;;17.38;11.60;;;14.60;99.90;;;;;;5069771;28;20521;-65
2021/06/06 06:18:45;;;;;;;17.48;11.38;;;14.60;99.90;;;;;;5070241;28;20035;-65
2021/06/06 06:21:14;;;;;;;19.45;11.85;;;14.60;99.90;;;;;;5069350;28;20047;-65
2021/06/06 06:23:40;;;;;;;22.15;12.75;;;14.60;99.90;;;;;;5070229;28;20056;-65
2021/06/06 06:26:06;;;;;;;17.27;11.63;;;14.60;99.90;;;;;;5069596;28;20040;-65
2021/06/06 06:28:33;;;;;;;19.13;12.50;;;14.60;99.90;;;;;;5070470;28;20029;-64
2021/06/06 06:30:59;;;;;;;21.25;12.88;;;14.60;99.90;;;;;;5070535;28;20530;-66
2021/06/06 06:33:26;;;;;;;20.70;13.07;;;14.60;99.90;;;;;;5069204;28;20028;-65
2021/06/06 06:35:52;;;;;;;18.95;10.75;;;14.60;99.90;;;;;;5052519;28;20055;-65
2021/06/06 06:38:18;;;;;;;17.75;11.88;;;14.60;99.90;;;;;;5068796;28;20037;-65
2021/06/06 06:40:43;;;;;;;21.27;12.70;;;14.60;99.90;;;;;;5071927;28;20029;-65
2021/06/06 06:43:10;;;;;;;15.90;11.10;;;14.60;99.90;;;;;;5073005;28;20037;-65
2021/06/06 06:45:41;;;;;;;16.33;10.98;;;14.60;99.90;;;;;;5073472;28;20036;-65
2021/06/06 06:48:18;;;;;;;18.27;12.00;;;14.70;99.90;;;;;;5072885;28;20041;-66
2021/06/06 06:50:46;;;;;;;14.98;10.93;;;14.60;99.90;;;;;;5073569;28;20057;-65
2021/06/06 06:53:12;;;;;;;15.35;11.18;;;14.60;99.90;;;;;;5072264;28;20090;-66
2021/06/06 06:55:38;;;;;;;13.52;10.00;;;14.60;99.90;;;;;;5073592;28;20044;-66
2021/06/06 06:58:05;;;;;;;16.75;11.15;;;14.70;99.90;;;;;;5073688;28;20028;-65
2021/06/06 07:00:34;;;;;;;14.68;10.40;;;14.70;99.90;;;;;;5073281;28;20032;-65
2021/06/06 07:03:01;;;;;;;17.65;11.68;;;14.70;99.90;;;;;;5073279;28;20492;-64
2021/06/06 07:05:27;;;;;;;13.13;10.15;;;14.80;99.90;;;;;;5072732;28;20500;-64
2021/06/06 07:07:54;;;;;;;14.43;10.75;;;14.80;99.90;;;;;;5073576;28;20020;-64
2021/06/06 07:10:24;;;;;;;14.40;9.98;;;14.80;99.90;;;;;;5072252;28;20393;-64
2021/06/06 07:12:51;;;;;;;16.75;10.77;;;14.80;99.90;;;;;;5055670;28;20039;-65
2021/06/06 07:15:18;;;;;;;12.52;9.88;;;14.80;99.90;;;;;;5072078;28;20044;-65
2021/06/06 07:17:44;;;;;;;12.82;9.93;;;14.80;99.90;;;;;;5073205;28;20044;-64
2021/06/06 07:20:14;;;;;;;16.13;10.60;;;14.90;99.90;;;;;;5072664;28;20033;-65
2021/06/06 07:22:40;;;;;;;13.90;8.93;;;14.90;99.90;;;;;;5073135;28;20032;-64
2021/06/06 07:25:08;;;;;;;17.33;10.02;;;14.90;99.90;;;;;;5072325;28;20074;-65
2021/06/06 07:27:37;;;;;;;11.27;9.52;;;14.90;99.90;;;;;;5072901;28;20024;-65
2021/06/06 07:30:07;;;;;;;16.55;10.82;;;14.90;99.90;;;;;;5072755;28;20461;-65
2021/06/06 07:32:33;;;;;;;16.23;10.15;;;14.90;99.90;;;;;;5072626;28;20028;-65
2021/06/06 07:35:00;;;;;;;17.52;10.27;;;15.00;99.90;;;;;;5072633;28;20046;-66
2021/06/06 07:37:26;;;;;;;12.27;9.02;;;15.10;99.90;;;;;;5072105;28;20739;-66
2021/06/06 07:39:52;;;;;;;15.45;9.70;;;15.00;99.90;;;;;;5078655;28;20033;-65
2021/06/06 07:42:17;;;;;;;16.90;10.60;;;15.00;99.90;;;;;;5076169;28;20028;-66
2021/06/06 07:44:43;;;;;;;17.20;10.93;;;15.00;99.90;;;;;;5072442;28;20070;-65
2021/06/06 07:47:09;;;;;;;18.92;10.23;;;15.00;99.90;;;;;;5071036;28;20032;-65
2021/06/06 07:49:37;;;;;;;21.10;12.73;;;15.00;99.90;;;;;;5072217;28;20469;-65
2021/06/06 07:52:04;;;;;;;19.85;11.27;;;15.10;99.90;;;;;;5072474;28;20055;-65
2021/06/06 07:54:30;;;;;;;19.98;11.60;;;15.00;99.90;;;;;;5071816;28;20036;-65
2021/06/06 07:56:58;;;;;;;14.88;10.60;;;15.00;99.90;;;;;;5072355;28;20130;-66
2021/06/06 07:59:24;;;;;;;19.25;12.00;;;15.00;99.90;;;;;;5071362;28;20132;-65
2021/06/06 08:01:50;;;;;;;22.27;13.20;;;15.10;99.90;;;;;;5072448;28;20020;-65
2021/06/06 08:04:16;;;;;;;22.55;13.38;;;15.10;99.90;;;;;;5071146;28;20463;-64
2021/06/06 08:06:42;;;;;;;24.38;13.38;;;15.10;99.90;;;;;;5071398;28;20116;-65
2021/06/06 08:09:09;;;;;;;22.25;12.65;;;15.10;99.90;;;;;;5067409;28;20032;-66
2021/06/06 08:11:36;;;;;;;27.33;13.82;;;15.00;99.90;;;;;;5072982;28;20112;-65
2021/06/06 08:14:02;;;;;;;26.38;14.38;;;15.10;99.90;;;;;;5071819;28;20044;-65
2021/06/06 08:16:27;;;;;;;30.90;16.70;;;15.10;99.90;;;;;;5071097;28;20020;-64
2021/06/06 08:18:53;;;;;;;27.85;14.02;;;15.10;99.90;;;;;;5071347;28;20028;-64
2021/06/06 08:21:26;;;;;;;24.63;14.00;;;15.10;99.90;;;;;;5069756;28;20027;-65
2021/06/06 08:23:51;;;;;;;24.83;14.30;;;15.10;99.90;;;;;;5071353;28;20032;-63
2021/06/06 08:26:19;;;;;;;22.15;14.13;;;15.10;99.90;;;;;;5071615;28;20035;-64
2021/06/06 08:28:46;;;;;;;22.75;14.45;;;15.10;99.90;;;;;;5071812;28;20027;-63
2021/06/06 08:31:16;;;;;;;24.05;14.40;;;15.10;99.90;;;;;;5053042;28;20119;-64
2021/06/06 08:33:42;;;;;;;23.85;13.43;;;15.10;99.90;;;;;;5071484;28;20095;-64
2021/06/06 08:36:13;;;;;;;24.23;15.38;;;15.10;99.90;;;;;;5069341;28;20487;-65
2021/06/06 08:38:38;;;;;;;;;;;15.20;99.90;;;;;;5067853;28;20025;-64
2021/06/06 08:41:10;;;;;;;22.02;13.82;;;15.20;99.90;;;;;;5070975;28;19915;-65
2021/06/06 08:44:02;;;;;;;28.30;14.68;;;15.20;99.90;;;;;;5071538;28;20025;-65
2021/06/06 08:46:34;;;;;;;23.52;14.07;;;15.20;99.90;;;;;;5066897;28;20025;-66
2021/06/06 08:49:02;;;;;;;23.20;14.10;;;15.20;99.90;;;;;;5069803;28;20020;-64
2021/06/06 08:51:57;;;;;;;28.15;14.63;;;15.30;99.90;;;;;;5069767;28;20047;-65
2021/06/06 08:54:48;;;;;;;22.85;14.68;;;15.30;99.90;;;;;;5070336;28;20040;-65
2021/06/06 08:57:18;;;;;;;25.70;14.52;;;15.30;99.90;;;;;;5019915;28;20473;-64
2021/06/06 08:59:51;;;;;;;25.88;15.52;;;15.30;99.90;;;;;;5071424;28;20052;-64
2021/06/06 09:02:38;;;;;;;26.33;15.75;;;15.50;99.90;;;;;;5065345;28;20801;-65
2021/06/06 09:05:11;;;;;;;22.70;14.25;;;15.50;99.90;;;;;;5071362;28;20028;-65
2021/06/06 09:07:40;;;;;;;25.85;14.57;;;15.40;99.90;;;;;;5071161;28;20024;-68
2021/06/06 09:10:13;;;;;;;24.23;14.07;;;15.40;99.90;;;;;;5067872;28;20039;-72
2021/06/06 09:12:40;;;;;;;25.45;14.93;;;15.50;99.90;;;;;;5053751;28;20020;-70
2021/06/06 09:15:08;;;;;;;27.48;15.27;;;15.40;99.90;;;;;;5070936;28;20132;-72
2021/06/06 09:17:38;;;;;;;23.15;14.32;;;15.40;99.90;;;;;;5069068;28;20032;-68
2021/06/06 09:20:23;;;;;;;27.23;16.75;;;15.40;99.90;;;;;;5069016;28;20443;-70
2021/06/06 09:22:49;;;;;;;30.92;18.05;;;15.40;99.90;;;;;;5071315;28;20082;-66
2021/06/06 09:25:33;;;;;;;31.15;18.05;;;15.40;99.90;;;;;;5069578;28;20036;-68
2021/06/06 09:28:02;;;;;;;26.20;16.80;;;15.40;99.90;;;;;;5063822;28;20468;-68
2021/06/06 09:30:27;;;;;;;26.02;17.60;;;15.40;99.90;;;;;;5065462;28;20013;-68
2021/06/06 09:33:11;;;;;;;29.70;17.90;;;15.40;99.90;;;;;;5070455;28;20087;-68
2021/06/06 09:35:52;;;;;;;27.10;16.70;;;15.40;99.90;;;;;;5070760;28;20032;-68
2021/06/06 09:38:30;;;;;;;26.95;17.67;;;15.40;99.90;;;;;;5069642;28;20693;-68
2021/06/06 09:41:08;;;;;;;29.95;17.60;;;15.40;99.90;;;;;;5070781;28;20027;-68
2021/06/06 09:43:34;;;;;;;26.23;16.95;;;15.40;99.90;;;;;;5071202;28;20035;-68
2021/06/06 09:46:19;;;;;;;23.42;16.20;;;15.50;99.90;;;;;;5052996;28;20029;-70
2021/06/06 09:48:46;;;;;;;25.40;15.85;;;15.60;99.90;;;;;;5062332;28;20035;-67
2021/06/06 09:51:25;;;;;;;21.58;14.68;;;15.70;99.90;;;;;;5069697;28;20145;-66
2021/06/06 09:53:56;;;;;;;28.13;18.45;;;15.60;99.90;;;;;;5070417;28;20069;-67
2021/06/06 09:56:26;;;;;;;28.58;18.50;;;15.60;99.90;;;;;;5061874;28;20051;-66
2021/06/06 09:58:53;;;;;;;32.85;21.10;;;15.70;99.90;;;;;;5070721;28;20580;-66
2021/06/06 10:01:34;;;;;;;28.38;20.02;;;15.60;99.90;;;;;;5069145;28;20442;-67
2021/06/06 10:04:07;;;;;;;34.75;23.20;;;15.60;99.90;;;;;;5070351;28;20116;-67
2021/06/06 10:06:41;;;;;;;39.92;24.55;;;15.70;99.90;;;;;;5061105;28;20056;-67
2021/06/06 10:09:22;;;;;;;39.00;25.15;;;15.70;99.90;;;;;;5067496;28;20060;-67
2021/06/06 10:12:21;;;;;;;37.33;26.23;;;15.70;99.90;;;;;;5066959;28;20025;-66
2021/06/06 10:15:09;;;;;;;40.53;27.98;;;15.90;99.90;;;;;;5057235;28;20037;-66
2021/06/06 10:17:51;;;;;;;45.00;28.77;;;15.90;99.90;;;;;;5074261;28;20032;-66
2021/06/06 10:20:30;;;;;;;41.53;27.42;;;16.00;99.90;;;;;;5073512;28;20029;-66
2021/06/06 10:23:04;;;;;;;45.08;29.27;;;16.00;99.90;;;;;;5074257;28;20039;-67
2021/06/06 10:26:22;;;;;;;43.00;27.83;;;16.00;99.90;;;;;;5073385;28;20054;-66
2021/06/06 10:28:51;;;;;;;45.45;27.52;;;16.00;99.90;;;;;;5045557;28;20171;-66
2021/06/06 10:31:23;;;;;;;39.88;27.67;;;16.10;99.90;;;;;;5056968;28;20143;-67
2021/06/06 10:33:57;;;;;;;38.63;25.50;;;16.10;99.90;;;;;;5053784;28;20035;-66
2021/06/06 10:36:26;;;;;;;43.83;28.67;;;16.10;99.90;;;;;;5073404;28;20060;-66
2021/06/06 10:38:53;;;;;;;41.97;28.98;;;16.10;99.90;;;;;;5039952;28;20028;-66
2021/06/06 10:41:21;;;;;;;47.47;29.92;;;16.10;99.90;;;;;;5064608;28;20027;-66
2021/06/06 10:43:53;;;;;;;42.72;30.23;;;16.00;99.90;;;;;;5071211;28;20024;-66
2021/06/06 10:46:28;;;;;;;44.10;29.98;;;16.00;99.90;;;;;;5069753;28;20363;-66
2021/06/06 10:49:18;;;;;;;46.92;31.05;;;16.00;99.90;;;;;;5070733;28;20021;-66
2021/06/06 10:52:04;;;;;;;46.88;30.17;;;16.10;99.90;;;;;;5066447;28;20040;-68
2021/06/06 10:54:38;;;;;;;51.00;33.80;;;16.10;99.90;;;;;;5069751;28;20543;-65
2021/06/06 10:57:13;;;;;;;57.42;36.13;;;16.20;99.90;;;;;;5065313;28;20530;-65
2021/06/06 10:59:38;;;;;;;52.67;33.80;;;16.30;99.90;;;;;;5072283;28;20021;-66
2021/06/06 11:02:26;;;;;;;56.78;34.72;;;16.30;99.90;;;;;;5073098;28;20385;-65
2021/06/06 11:04:54;;;;;;;50.88;32.33;;;16.30;99.90;;;;;;5073124;28;20036;-65
2021/06/06 11:07:27;;;;;;;52.92;36.15;;;16.30;99.90;;;;;;5070647;28;20454;-65
2021/06/06 11:10:01;;;;;;;55.40;34.88;;;16.30;99.90;;;;;;5072988;28;20112;-65
2021/06/06 11:12:33;;;;;;;52.45;33.95;;;16.40;99.90;;;;;;5071893;28;20081;-65
2021/06/06 11:15:01;;;;;;;60.83;37.88;;;16.30;99.90;;;;;;5073048;28;20068;-65
2021/06/06 11:17:39;;;;;;;56.97;36.88;;;16.30;99.90;;;;;;5065566;28;20516;-65
2021/06/06 11:20:27;;;;;;;57.05;34.95;;;16.30;99.90;;;;;;5059793;28;20028;-65
2021/06/06 11:22:54;;;;;;;65.22;38.92;;;16.30;99.90;;;;;;5071248;28;20056;-64
2021/06/06 11:25:31;;;;;;;65.80;38.40;;;16.30;99.90;;;;;;5071135;28;20191;-64
2021/06/06 11:28:08;;;;;;;76.43;43.25;;;16.30;99.90;;;;;;5072087;28;20024;-63
2021/06/06 11:30:40;;;;;;;68.95;41.60;;;16.20;99.90;;;;;;5071690;28;20039;-64
2021/06/06 11:33:11;;;;;;;73.10;42.55;;;16.10;99.90;;;;;;5070372;28;20036;-64
2021/06/06 11:35:36;;;;;;;;;;;16.00;99.90;;;;;;5045820;28;20044;-64
2021/06/06 11:38:41;;;;;;;102.88;53.72;;;15.90;99.90;;;;;;5060149;28;19908;-63
2021/06/06 11:41:16;;;;;;;98.20;53.90;;;15.90;99.90;;;;;;5065866;28;20031;-63
2021/06/06 11:43:52;;;;;;;93.28;52.33;;;15.80;99.90;;;;;;5071557;28;20440;-62
2021/06/06 11:46:29;;;;;;;93.53;51.47;;;15.70;99.90;;;;;;5071522;28;20094;-64
2021/06/06 11:49:01;;;;;;;105.10;55.75;;;15.60;99.90;;;;;;5064147;28;20400;-62
2021/06/06 11:51:43;;;;;;;102.53;56.15;;;15.60;99.90;;;;;;5069893;28;20056;-62
2021/06/06 11:54:34;;;;;;;98.20;55.72;;;15.70;99.90;;;;;;5056998;28;20082;-64
2021/06/06 11:57:08;;;;;;;103.35;54.15;;;15.70;99.90;;;;;;5071092;28;20433;-63
2021/06/06 11:59:57;;;;;;;97.72;53.70;;;15.80;99.90;;;;;;5070118;28;20024;-63
2021/06/06 12:02:29;;;;;;;84.65;49.65;;;15.80;99.90;;;;;;5013895;28;20047;-63
2021/06/06 12:04:57;;;;;;;81.35;47.30;;;15.80;99.90;;;;;;5071824;28;20380;-62
2021/06/06 12:07:29;;;;;;;78.20;46.50;;;15.90;99.90;;;;;;5066356;28;21577;-63
2021/06/06 12:09:56;;;;;;;68.30;42.45;;;16.00;99.90;;;;;;5071608;28;20083;-62
2021/06/06 12:12:32;;;;;;;73.80;45.33;;;16.00;99.90;;;;;;5071206;28;20119;-63
2021/06/06 12:15:20;;;;;;;72.82;44.47;;;16.10;99.90;;;;;;5071220;28;20040;-63
2021/06/06 12:17:46;;;;;;;62.50;38.72;;;16.10;99.90;;;;;;5065630;28;20031;-63
2021/06/06 12:20:19;;;;;;;64.35;40.60;;;16.10;99.90;;;;;;5063408;28;20025;-64
2021/06/06 12:22:45;;;;;;;64.28;38.80;;;16.10;99.90;;;;;;5063569;28;20037;-62
2021/06/06 12:25:13;;;;;;;61.83;39.20;;;16.20;99.90;;;;;;5070913;28;20032;-68
2021/06/06 12:27:52;;;;;;;64.57;36.55;;;16.30;99.90;;;;;;5071079;28;20029;-62
2021/06/06 12:30:42;;;;;;;53.13;34.65;;;16.40;99.90;;;;;;5067367;28;20488;-63
2021/06/06 12:33:29;;;;;;;54.08;37.22;;;16.60;99.90;;;;;;5068130;28;20469;-65
2021/06/06 12:35:59;;;;;;;53.38;35.85;;;16.70;99.90;;;;;;5065385;28;20048;-62
2021/06/06 12:38:27;;;;;;;48.40;34.20;;;16.80;99.90;;;;;;5065470;28;20032;-63
2021/06/06 12:40:53;;;;;;;52.63;33.75;;;16.80;99.90;;;;;;5068138;28;20025;-62
2021/06/06 12:43:24;;;;;;;49.25;34.80;;;16.90;99.90;;;;;;5067971;28;20103;-62
2021/06/06 12:45:50;;;;;;;50.60;35.45;;;16.90;99.90;;;;;;5070633;28;20380;-64
2021/06/06 12:48:27;;;;;;;48.95;32.72;;;17.00;99.90;;;;;;5070372;28;20033;-62
2021/06/06 12:50:54;;;;;;;49.55;32.92;;;17.00;99.90;;;;;;5068627;28;20107;-63
2021/06/06 12:53:25;;;;;;;49.22;33.47;;;17.00;99.90;;;;;;5061943;28;20108;-63